TALLINN current weather conditions

sailwx.info

Wind from 230 at 6 knots

Air temperature 6.0° C
Visibility: greater than 5.4 NM
Dewpoint 4.0° C

Last reported at 2014-Oct-30 15:20 UTC.
Time now 2014-Oct-30 17:34 UTC

Location: N 59°24' E 024°49'.
View on Google Maps.

See reports from other nearby stations

  
Tides and Currents Weather Stations Pressure Air Temp Water Temp Dewpoint Dewpoint Depression Visibility Wind Speed Wind Dir Waves Ship Positions
date/time (UTC)wind fromknots sea level pressurealtimeterstation pressurevisibilityair tempwater tempwave heightnotes
2014-Oct-30 16:20 230 6 5.0
2014-Oct-30 15:50 230 7 5.4 5.0
2014-Oct-30 15:20 230 6 5.4 6.0
2014-Oct-30 14:50 250 5 5.4 6.0
2014-Oct-30 14:20 260 9 5.4 7.0
2014-Oct-30 13:50 270 9 5.4 7.0
2014-Oct-30 13:20 260 10 5.4 8.0
2014-Oct-30 12:50 270 11 5.4 8.0
2014-Oct-30 12:20 270 11 5.4 9.0
2014-Oct-30 11:50 260 9 5.4 9.0
2014-Oct-30 11:20 260 8 5.4 9.0
2014-Oct-30 10:50 250 8 5.4 9.0
2014-Oct-30 10:20 260 7 5.4 9.0
2014-Oct-30 09:50 250 5 5.4 9.0
2014-Oct-30 09:20 230 4 5.4 8.0
2014-Oct-30 08:50 230 5 5.4 6.0
2014-Oct-30 08:20 250 3 5.0
2014-Oct-30 07:50 260 3 0.3 3.0 Fog.
2014-Oct-30 07:20 210 2 0.3 2.0 Fog.
2014-Oct-30 06:50 180 2 1.1 1.0 Patches of fog. Mist.
2014-Oct-30 06:20 210 2 4.3 2.0 Patches of fog.
2014-Oct-30 05:50 250 3 0.2 2.0 Fog.
2014-Oct-30 05:20 280 2 0.6 3.0 Partial fog. Mist.
2014-Oct-30 04:50 220 3 2.4 3.0 Mist. Patches of fog.
2014-Oct-30 04:20 0.8 3.0 Mist. Patches of fog.
2014-Oct-30 03:50 0.3 2.0 Fog.
2014-Oct-30 03:20 2.4 3.0 Mist. Patches of fog.
2014-Oct-30 02:50 2.4 3.0 Mist. Patches of fog.
2014-Oct-30 02:20 200 2 2.5 3.0 Mist. Patches of fog.
2014-Oct-30 01:50 3.2 4.0 Mist. Patches of fog.
2014-Oct-30 01:20 3.2 4.0 Patches of fog.
2014-Oct-30 00:50 1.8 4.0 Mist. Patches of fog.
2014-Oct-30 00:20 190 2 2.0 4.0 Mist. Patches of fog.
2014-Oct-29 23:50 1.9 4.0 Mist. Patches of fog.
2014-Oct-29 23:20 210 1 1.4 4.0 Mist. Patches of fog.
2014-Oct-29 22:50 270 2 1.8 5.0 Mist. Patches of fog.
2014-Oct-29 22:20 230 3 4.9 5.0 Patches of fog.
2014-Oct-29 21:50 260 4 4.9 5.0 Patches of fog.
2014-Oct-29 21:20 250 4 6.0
2014-Oct-29 20:50 260 5 5.0
2014-Oct-29 20:20 260 6 5.4 7.0
2014-Oct-29 19:50 290 9 5.4 8.0
2014-Oct-29 19:20 260 10 5.4 9.0
2014-Oct-29 18:50 250 11 4.9 9.0
2014-Oct-29 18:20 230 11 4.9 9.0 Light rain.
2014-Oct-29 17:50 220 8 3.8 9.0 Rain.
2014-Oct-29 17:20 220 10 2.7 9.0 Light drizzle rain. Mist.
2014-Oct-29 16:50 220 13 2.4 9.0 Light rain drizzle. Mist.
2014-Oct-29 16:20 220 13 1.4 9.0 Drizzle rain. Mist.
2014-Oct-29 15:50 230 14 2.710.0 Light drizzle. Mist.
2014-Oct-29 15:20 220 13 gusting 23 5.410.0 Light rain.
2014-Oct-29 14:50 220 13 5.410.0
2014-Oct-29 14:20 220 14 5.410.0
2014-Oct-29 13:50 220 14 5.411.0
2014-Oct-29 13:20 220 16 11.0
2014-Oct-29 12:50 210 17 gusting 27 11.0
2014-Oct-29 12:20 210 15 12.0
2014-Oct-29 11:50 200 15 gusting 26 12.0
2014-Oct-29 11:20 210 18 12.0
2014-Oct-29 10:50 210 18 gusting 27 12.0
2014-Oct-29 10:20 200 18 gusting 31 12.0
2014-Oct-29 09:50 200 17 11.0
2014-Oct-29 09:20 200 18 gusting 27 10.0
2014-Oct-29 08:50 190 17 gusting 27 10.0
2014-Oct-29 08:20 200 16 9.0
2014-Oct-29 07:50 200 15 9.0
2014-Oct-29 07:20 200 16 gusting 26 9.0
2014-Oct-29 06:50 200 18 gusting 27 8.0
2014-Oct-29 06:20 200 15 7.0
2014-Oct-29 05:50 200 14 7.0
2014-Oct-29 05:20 200 12 7.0
2014-Oct-29 04:50 200 11 7.0
2014-Oct-29 04:20 200 10 7.0
2014-Oct-29 03:50 200 10 7.0
2014-Oct-29 03:20 200 13 8.0
2014-Oct-29 02:50 200 12 8.0
2014-Oct-29 02:20 200 12 9.0
2014-Oct-29 01:50 210 13 9.0
2014-Oct-29 01:20 210 12 9.0
2014-Oct-29 00:50 210 13 9.0
2014-Oct-29 00:20 210 13 10.0
2014-Oct-28 23:50 210 13 10.0
2014-Oct-28 23:20 210 13 10.0
2014-Oct-28 22:50 210 13 10.0
2014-Oct-28 22:20 220 14 11.0
2014-Oct-28 21:50 220 14 11.0
2014-Oct-28 21:20 220 14 12.0
2014-Oct-28 20:50 220 15 gusting 26 12.0
2014-Oct-28 20:20 220 16 11.0
2014-Oct-28 19:50 220 17 11.0
2014-Oct-28 19:20 220 16 gusting 26 11.0
2014-Oct-28 18:50 220 15 11.0
2014-Oct-28 18:20 220 15 11.0
2014-Oct-28 17:50 210 14 5.411.0
2014-Oct-28 17:20 210 14 5.411.0